Latest Weather Observations for Forrest

IDW60801

Issued at 5:14 pm WST Sunday 21 December 2014 (issued every 30 minutes, with the page automatically refreshed every 10 minutes)

About weather observations | Map of weather stations | Latest weather observations for WA | Other Formats
Station Details ID: 011052 Name: FORREST Lat: -30.85 Lon: 128.11 Height: 159.0 m
Data from the previous 72 hours. | See also: Recent months at Forrest
Date/Time
WST
Temp
°C
App
Temp
°C
Dew
Point
Rel
Hum
%
Delta-T
°C
Wind Press
QNH
hPa
Press
MSL
hPa
Rain
since 9 am
mm
Dir
 
Spd
km/h
Gust
km/h
Spd
kts
Gust
kts
21/05:00pm 23.2 18.3 15.3 61 4.8 SSE 35 46 19 25 1009.0 - 0.0
21/04:30pm 24.1 19.7 15.1 57 5.4 SSE 32 43 17 23 1008.8 - 0.0
21/04:00pm 25.0 20.5 14.8 53 6.1 SE 32 43 17 23 1008.6 - 0.0
21/03:30pm 26.1 21.7 15.2 51 6.6 SSE 32 46 17 25 1008.1 - 0.0
21/03:00pm 26.6 21.6 15.0 49 7.1 SSE 35 52 19 28 1007.6 1006.9 0.0
21/02:51pm 27.6 23.3 15.3 47 7.6 SE 32 46 17 25 1007.8 - 0.0
21/02:30pm 27.4 22.1 15.4 48 7.4 S 37 54 20 29 1007.8 - 0.0
21/02:00pm 27.7 22.9 14.7 45 7.9 S 33 46 18 25 1008.2 - 0.0
21/01:30pm 28.5 24.2 15.4 45 8.1 S 32 48 17 26 1008.5 - 0.0
21/01:00pm 28.4 24.2 14.6 43 8.4 S 30 43 16 23 1008.7 - 0.0
21/12:30pm 28.6 25.2 14.8 43 8.4 S 26 35 14 19 1008.6 - 0.0
21/12:00pm 28.4 25.1 15.0 44 8.2 SSW 26 37 14 20 1008.5 1007.8 0.0
21/11:30am 28.1 25.7 15.4 46 7.8 S 22 32 12 17 1008.8 - 0.0
21/11:00am 27.6 24.9 15.6 48 7.4 S 24 39 13 21 1009.4 - 0.0
21/10:30am 27.5 25.0 16.1 49 7.1 SW 24 32 13 17 1009.6 - 0.0
21/10:00am 26.5 24.6 16.7 55 6.1 SW 22 32 12 17 1009.8 - 0.0
21/09:30am 25.8 24.4 16.9 58 5.6 SW 20 26 11 14 1009.9 - 0.0
21/09:00am 25.9 24.8 19.5 68 4.2 W 24 39 13 21 1009.9 1009.2 0.0
21/08:30am 25.0 24.5 17.7 64 4.6 W 17 22 9 12 1009.4 - 0.0
21/08:00am 24.4 25.0 17.6 66 4.3 SW 11 19 6 10 1009.2 - 0.0
21/07:30am 23.2 23.8 16.7 67 4.0 SSW 9 15 5 8 1008.9 - 0.0
21/07:00am 22.3 22.9 16.8 71 3.4 S 9 15 5 8 1008.8 - 0.0
21/06:30am 21.2 21.6 17.2 78 2.5 SE 11 15 6 8 1008.7 - 0.0
21/06:00am 20.1 20.5 17.3 84 1.7 ESE 11 17 6 9 1008.2 1007.5 0.0
21/05:30am 18.9 19.3 17.2 90 1.0 ESE 11 15 6 8 1007.4 - 0.0
21/05:00am 17.9 17.4 16.8 93 0.7 ESE 15 20 8 11 1007.0 - 0.0
21/04:30am 17.9 16.0 16.6 92 0.8 ESE 22 30 12 16 1006.1 - 0.0
21/04:00am 18.0 15.0 16.9 93 0.7 ESE 28 35 15 19 1005.8 - 0.0
21/03:30am 17.9 13.9 16.6 92 0.8 ESE 33 44 18 24 1005.8 - 0.0
21/03:10am 18.0 12.6 17.0 94 0.6 ESE 41 59 22 32 1004.0 - 0.0
21/03:00am 17.9 14.6 17.1 95 0.5 SE 30 39 16 21 1006.0 1005.3 0.0
21/02:30am 18.1 14.2 16.9 93 0.7 S 33 43 18 23 1007.8 - 0.0
21/02:00am 18.5 14.4 17.3 93 0.7 S 35 48 19 26 1009.5 - 0.0
21/01:30am 18.9 13.4 17.6 92 0.8 SSW 43 57 23 31 1009.7 - 0.0
21/01:10am 19.3 14.2 16.7 85 1.6 SSW 39 57 21 31 1009.8 - 0.0
21/01:00am 19.4 14.4 16.1 81 2.0 SSW 37 52 20 28 1009.6 - 0.0
21/12:39am 20.7 12.4 12.7 60 4.6 SW 48 69 26 37 1008.0 - 0.0
21/12:30am 26.2 17.8 7.3 30 10.1 SSW 41 67 22 36 1007.8 - 0.0
21/12:27am 25.9 18.0 6.0 28 10.4 SSW 37 67 20 36 1007.3 - 0.0
21/12:20am 25.7 14.0 6.3 29 10.1 SW 57 65 31 35 1007.6 - 0.0
21/12:16am 26.1 18.9 5.1 26 10.8 WSW 32 50 17 27 1007.7 - 0.0
21/12:15am 26.0 19.9 5.0 26 10.7 WSW 26 44 14 24 1007.4 - 0.0
21/12:00am 26.0 20.3 5.0 26 10.8 ESE 24 32 13 17 1005.4 1004.6 0.0
 
Date/Time
WST
Temp
°C
App
Temp
°C
Dew
Point
Rel
Hum
%
Delta-T
°C
Wind Press
QNH
hPa
Press
MSL
hPa
Rain
since 9 am
mm
Dir
 
Spd
km/h
Gust
km/h
Spd
kts
Gust
kts
20/11:30pm 26.4 21.2 5.4 26 10.8 ESE 22 28 12 15 1005.7 - 0.0
20/11:00pm 26.7 21.8 5.1 25 11.1 ESE 20 26 11 14 1005.9 - 0.0
20/10:30pm 27.2 22.4 4.9 24 11.5 ESE 19 24 10 13 1005.6 - 0.0
20/10:00pm 27.5 21.3 4.5 23 11.8 E 26 33 14 18 1004.9 - 0.0
20/09:30pm 28.3 22.7 5.2 23 12.0 E 24 30 13 16 1005.6 - 0.0
20/09:00pm 28.7 22.4 5.5 23 12.2 E 28 35 15 19 1005.7 1005.0 0.0
20/08:30pm 29.5 22.8 5.6 22 12.7 ESE 30 39 16 21 1005.7 - 0.0
20/08:25pm 29.8 23.5 5.8 22 12.7 ESE 28 39 15 21 1005.6 - 0.0
20/08:00pm 30.8 27.1 7.9 24 12.7 NE 17 17 9 9 1005.3 - 0.0
20/07:30pm 31.9 28.3 8.2 23 13.2 NNE 17 19 9 10 1004.9 - 0.0
20/07:00pm 33.5 29.9 8.2 21 14.2 NNE 17 20 9 11 1005.3 - 0.0
20/06:30pm 34.6 30.6 8.4 20 14.9 NNE 19 24 10 13 1005.2 - 0.0
20/06:00pm 35.4 29.9 7.5 18 15.7 NNE 26 33 14 18 1004.6 1003.9 0.0
20/05:30pm 36.1 29.4 7.2 17 16.2 NNE 32 39 17 21 1004.4 - 0.0
20/05:00pm 37.4 32.8 6.4 15 17.3 N 20 32 11 17 1004.5 - 0.0
20/04:30pm 37.8 33.2 5.7 14 17.7 NE 19 28 10 15 1004.7 - 0.0
20/04:00pm 37.8 33.2 5.7 14 17.7 N 19 28 10 15 1005.4 - 0.0
20/03:30pm 38.0 33.8 5.9 14 17.8 NNE 17 32 9 17 1006.0 - 0.0
20/03:00pm 37.9 34.5 5.8 14 17.8 NNE 13 24 7 13 1006.4 1005.7 0.0
20/02:30pm 37.3 33.4 5.3 14 17.5 ENE 15 22 8 12 1007.0 - 0.0
20/02:00pm 38.1 34.5 4.9 13 18.1 NE 13 26 7 14 1007.6 - 0.0
20/01:30pm 37.0 32.1 5.1 14 17.4 NNE 20 32 11 17 1008.2 - 0.0
20/01:00pm 37.3 32.4 4.3 13 17.8 N 19 32 10 17 1008.5 - 0.0
20/12:30pm 36.8 30.9 3.9 13 17.6 N 24 30 13 16 1009.1 - 0.0
20/12:00pm 35.2 30.0 3.7 14 16.7 NE 20 35 11 19 1009.8 1009.1 0.0
20/11:30am 36.4 31.0 4.6 14 17.1 NNE 22 35 12 19 1010.8 - 0.0
20/11:00am 34.6 28.9 5.1 16 15.9 NNE 24 33 13 18 1011.8 - 0.0
20/10:30am 33.3 28.7 6.6 19 14.6 NNE 20 32 11 17 1012.6 - 0.0
20/10:00am 32.8 27.9 6.9 20 14.2 NNE 22 32 12 17 1013.0 - 0.0
20/09:30am 31.8 26.1 6.8 21 13.6 NNE 26 35 14 19 1013.5 - 0.0
20/09:00am 29.9 24.5 6.5 23 12.6 NE 24 33 13 18 1014.0 1013.3 0.0
20/08:30am 28.8 24.4 7.4 26 11.6 NE 20 28 11 15 1014.3 - 0.0
20/08:00am 27.0 22.2 7.5 29 10.5 ENE 22 30 12 16 1014.6 - 0.0
20/07:30am 24.9 20.0 8.4 35 8.9 ENE 24 30 13 16 1014.8 - 0.0
20/07:00am 22.9 17.4 9.0 41 7.5 ENE 28 33 15 18 1014.9 - 0.0
20/06:30am 20.9 16.0 10.1 50 5.9 ENE 26 30 14 16 1015.2 - 0.0
20/06:00am 19.0 15.0 10.6 58 4.6 ENE 22 28 12 15 1015.3 1014.6 0.0
20/05:30am 17.2 14.0 11.2 68 3.3 E 19 24 10 13 1015.2 - 0.0
20/05:00am 16.3 13.1 11.2 72 2.8 E 19 24 10 13 1014.9 - 0.0
20/04:30am 15.9 12.6 11.5 75 2.4 E 20 26 11 14 1014.5 - 0.0
20/04:00am 15.9 13.1 11.5 75 2.4 E 17 20 9 11 1014.7 - 0.0
20/03:30am 16.0 13.7 11.8 76 2.3 E 15 19 8 10 1014.4 - 0.0
20/03:00am 16.3 14.0 11.9 75 2.4 E 15 17 8 9 1015.0 1014.3 0.0
20/02:30am 16.5 13.5 12.1 75 2.4 E 19 20 10 11 1014.9 - 0.0
20/02:00am 16.5 14.3 12.1 75 2.4 E 15 20 8 11 1015.2 - 0.0
20/01:30am 16.6 14.4 12.2 75 2.4 E 15 19 8 10 1015.5 - 0.0
20/01:00am 16.8 13.9 12.3 75 2.5 E 19 24 10 13 1015.7 - 0.0
20/12:30am 16.9 14.0 12.4 75 2.5 E 19 24 10 13 1016.3 - 0.0
20/12:00am 17.0 14.2 12.5 75 2.5 E 19 24 10 13 1016.3 1015.6 0.0
 
Date/Time
WST
Temp
°C
App
Temp
°C
Dew
Point
Rel
Hum
%
Delta-T
°C
Wind Press
QNH
hPa
Press
MSL
hPa
Rain
since 9 am
mm
Dir
 
Spd
km/h
Gust
km/h
Spd
kts
Gust
kts
19/11:30pm 17.1 13.9 12.0 72 2.8 E 20 26 11 14 1016.3 - 0.0
19/11:00pm 17.4 13.8 11.9 70 3.0 ESE 22 28 12 15 1016.5 - 0.0
19/10:30pm 17.7 14.4 11.7 68 3.3 ESE 20 28 11 15 1017.0 - 0.0
19/10:00pm 18.0 14.4 11.8 67 3.4 ESE 22 30 12 16 1017.0 - 0.0
19/09:30pm 18.4 14.4 11.9 66 3.6 ESE 24 33 13 18 1017.0 - 0.0
19/09:00pm 18.8 14.6 12.5 67 3.5 ESE 26 32 14 17 1016.8 1016.2 0.0
19/08:30pm 19.7 14.8 12.7 64 4.0 ESE 30 39 16 21 1016.7 - 0.0
19/08:00pm 20.6 15.3 12.6 60 4.5 ESE 32 44 17 24 1016.2 - 0.0
19/07:30pm 21.9 16.4 12.5 55 5.4 ESE 33 44 18 24 1015.8 - 0.0
19/07:00pm 23.0 16.3 12.3 51 6.1 ESE 39 50 21 27 1015.1 - 0.0
19/06:33pm 24.2 17.6 12.5 48 6.8 ESE 39 57 21 31 1015.0 - 0.0
19/06:30pm 24.2 17.2 12.5 48 6.8 ESE 41 57 22 31 1014.9 - 0.0
19/06:00pm 26.0 18.3 12.1 42 8.0 SE 44 56 24 30 1014.7 1014.0 0.0
19/05:30pm 28.4 20.9 11.0 34 10.0 SE 41 54 22 29 1014.5 - 0.0
19/05:00pm 30.4 23.4 9.8 28 11.7 ESE 37 57 20 31 1014.2 - 0.0
19/04:58pm 31.3 24.9 9.5 26 12.4 ESE 33 43 18 23 1014.3 - 0.0
19/04:30pm 32.4 28.6 1.5 14 15.5 ESE 11 19 6 10 1014.6 - 0.0
19/04:00pm 32.4 28.2 1.5 14 15.5 ESE 13 28 7 15 1014.9 - 0.0
19/03:30pm 33.3 29.6 2.2 14 15.9 E 11 17 6 9 1015.1 - 0.0
19/03:00pm 32.7 29.7 1.7 14 15.6 S 7 17 4 9 1015.5 1014.8 0.0
19/02:30pm 32.1 29.1 2.2 15 15.1 ENE 7 19 4 10 1015.9 - 0.0
19/02:00pm 31.3 28.5 3.4 17 14.3 E 7 17 4 9 1016.3 - 0.0
19/01:30pm 30.9 26.3 3.8 18 14.0 NE 17 24 9 13 1016.7 - 0.0
19/01:00pm 30.8 26.4 4.5 19 13.7 SE 17 22 9 12 1017.2 - 0.0
19/12:30pm 30.5 27.4 5.7 21 13.2 N 11 20 6 11 1017.7 - 0.0
19/12:00pm 28.6 24.7 5.5 23 12.1 E 15 26 8 14 1018.4 1017.7 0.0
19/11:30am 27.7 24.0 6.5 26 11.2 E 15 30 8 16 1018.9 - 0.0
19/11:00am 26.7 22.5 5.6 26 11.0 ENE 17 28 9 15 1019.5 - 0.0
19/10:30am 26.9 22.8 7.9 30 10.3 ENE 19 26 10 14 1019.9 - 0.0
19/10:00am 25.8 21.6 8.3 33 9.5 NE 20 26 11 14 1020.1 - 0.0
19/09:30am 24.9 20.8 8.8 36 8.8 ENE 20 30 11 16 1020.5 - 0.0
19/09:00am 23.7 20.1 10.0 42 7.5 E 19 28 10 15 1020.7 1020.0 0.0
19/08:30am 22.4 18.5 10.9 48 6.4 E 22 30 12 16 1020.9 - 0.0
19/08:00am 21.2 17.4 11.2 53 5.6 ENE 22 32 12 17 1021.1 - 0.0
19/07:30am 19.9 16.3 11.7 59 4.6 E 22 32 12 17 1021.1 - 0.0
19/07:00am 19.0 15.2 12.3 65 3.8 E 24 32 13 17 1021.0 - 0.0
19/06:30am 18.2 14.2 12.9 71 3.0 E 26 33 14 18 1020.8 - 0.0
19/06:00am 16.7 13.1 11.8 73 2.7 E 22 28 12 15 1020.7 1020.0 0.0
19/05:30am 15.1 12.4 11.7 80 1.8 E 17 22 9 12 1020.6 - 0.0
19/05:00am 12.9 11.0 10.4 85 1.3 ESE 11 13 6 7 1020.3 - 0.0
19/04:30am 11.2 8.6 9.3 88 1.0 SE 13 15 7 8 1020.0 - 0.0
19/04:00am 11.3 8.7 9.2 87 1.1 SE 13 15 7 8 1019.7 - 0.0
19/03:30am 11.4 8.7 9.1 86 1.2 SE 13 13 7 7 1019.4 - 0.0
19/03:00am 11.8 9.2 9.4 85 1.2 SE 13 15 7 8 1019.3 1018.6 0.0
19/02:30am 12.3 10.2 9.7 84 1.3 SE 11 13 6 7 1019.2 - 0.0
19/02:00am 12.6 10.5 9.6 82 1.5 ESE 11 11 6 6 1019.3 - 0.0
19/01:30am 13.5 11.9 10.3 81 1.7 ESE 9 11 5 6 1019.4 - 0.0
19/01:00am 14.1 12.3 10.7 80 1.8 ESE 11 13 6 7 1019.4 - 0.0
19/12:30am 14.8 13.0 11.0 78 2.0 ESE 11 15 6 8 1019.5 - 0.0
19/12:00am 15.5 13.1 11.3 76 2.3 E 15 19 8 10 1019.5 1018.8 0.0
 
Date/Time
WST
Temp
°C
App
Temp
°C
Dew
Point
Rel
Hum
%
Delta-T
°C
Wind Press
QNH
hPa
Press
MSL
hPa
Rain
since 9 am
mm
Dir
 
Spd
km/h
Gust
km/h
Spd
kts
Gust
kts
18/11:30pm 15.8 13.4 11.4 75 2.4 ESE 15 17 8 9 1019.7 - 0.0
18/11:00pm 16.1 13.7 11.3 73 2.6 ESE 15 19 8 10 1019.7 - 0.0
18/10:30pm 16.5 13.3 11.2 71 2.9 SE 19 24 10 13 1019.6 - 0.0
18/10:00pm 17.0 13.6 11.3 69 3.1 SE 20 26 11 14 1019.6 - 0.0
18/09:30pm 17.4 13.2 11.0 66 3.5 SE 24 33 13 18 1019.3 - 0.0
18/09:00pm 17.9 12.5 11.0 64 3.7 SE 30 41 16 22 1019.0 1018.3 0.0
18/08:30pm 18.3 12.9 10.9 62 4.0 SE 30 39 16 21 1018.9 - 0.0
18/08:00pm 18.9 13.2 11.2 61 4.2 SE 32 43 17 23 1018.4 - 0.0
18/07:30pm 19.8 13.9 10.5 55 5.1 SE 32 43 17 23 1017.9 - 0.0
18/07:00pm 20.9 14.9 10.1 50 5.9 SE 32 41 17 22 1017.6 - 0.0
18/06:30pm 22.0 15.8 9.9 46 6.6 SE 33 43 18 23 1017.3 - 0.0
18/06:00pm 23.5 17.1 9.5 41 7.6 SE 33 41 18 22 1017.1 1016.5 0.0
18/05:30pm 24.7 18.4 9.0 37 8.6 SE 32 41 17 22 1016.6 - 0.0

Other Formats:

Comma delimited format used in spreadsheet applications
http://www.bom.gov.au/fwo/IDW60801/IDW60801.95646.axf

JavaScript Object Notation format (JSON) in row-major order
http://www.bom.gov.au/fwo/IDW60801/IDW60801.95646.json